.
WxDataArchive / Data Records for 2007-03-09
2007-03-08 March 2007 2007-03-10

Data Records for Friday, 09 March 2007

Time	Temp	Chill	HIndex	Humid	Dewpt	 Wind 	HiWind	WindDir	Rain 	Barom 
-----	----	-----	------	-----	-----	------	------	-------	-----	----- 
00:00	28.1	28.1	28.1	79	22.4	2	5	112	0.00	30.196 
00:05	27.9	27.9	27.9	79	22.2	2	5	112	0.00	30.193 
00:10	27.8	27.8	27.8	80	22.4	2	5	112	0.00	30.190 
00:15	27.8	27.8	27.8	80	22.4	2	4	112	0.00	30.191 
00:20	27.6	27.6	27.6	80	22.3	1	4	112	0.00	30.192 
00:25	27.5	27.5	27.5	81	22.4	2	4	112	0.00	30.190 
00:30	27.5	27.5	27.5	81	22.4	1	3	112	0.00	30.189 
00:35	27.3	27.3	27.3	81	22.3	1	3	112	0.00	30.189 
00:40	27.3	27.3	27.3	81	22.3	1	3	112	0.00	30.191 
00:45	27.2	27.2	27.2	81	22.2	1	2	112	0.00	30.190 
00:50	27.0	27.0	27.0	81	22.0	1	2	112	0.00	30.190 
00:55	26.9	26.9	26.9	81	21.9	1	2	112	0.00	30.187 
01:00	26.9	26.9	26.9	81	21.9	0	2	112	0.00	30.183 
01:05	26.7	26.7	26.7	81	21.7	0	2	112	0.00	30.181 
01:10	26.6	26.6	26.6	81	21.6	0	1	112	0.00	30.177 
01:15	26.6	26.6	26.6	81	21.6	0	1	112	0.00	30.175 
01:20	26.4	26.4	26.4	81	21.4	0	1	112	0.00	30.176 
01:25	26.4	26.4	26.4	81	21.4	0	1	112	0.00	30.175 
01:30	26.3	26.3	26.3	81	21.3	0	1	112	0.00	30.175 
01:35	26.3	26.3	26.3	81	21.3	0	1	112	0.00	30.174 
01:40	26.1	26.1	26.1	81	21.1	0	1	112	0.00	30.175 
01:45	26.0	26.0	26.0	81	21.0	0	0	---	0.00	30.175 
01:50	25.6	25.6	25.6	81	20.6	0	0	---	0.00	30.175 
01:55	25.3	25.3	25.3	82	20.6	0	0	---	0.00	30.174 
02:00	25.1	25.1	25.1	82	20.4	0	0	---	0.00	30.174 
02:05	24.8	24.8	24.8	83	20.4	0	0	---	0.00	30.175 
02:10	24.5	24.5	24.5	83	20.1	0	0	---	0.00	30.175 
02:15	24.2	24.2	24.2	83	19.8	0	0	---	0.00	30.174 
02:20	24.1	24.1	24.1	84	20.0	0	0	---	0.00	30.175 
02:25	23.8	23.8	23.8	84	19.7	0	0	---	0.00	30.175 
02:30	23.6	23.6	23.6	84	19.5	0	0	---	0.00	30.172 
02:35	23.3	23.3	23.3	85	19.5	0	0	---	0.00	30.173 
02:40	23.0	23.0	23.0	85	19.2	0	0	---	0.00	30.171 
02:45	22.9	22.9	22.9	85	19.1	0	0	---	0.00	30.163 
02:50	22.9	22.9	22.9	86	19.4	0	0	---	0.00	30.162 
02:55	22.7	22.7	22.7	86	19.2	0	0	---	0.00	30.159 
03:00	22.5	22.5	22.5	87	19.2	0	0	---	0.00	30.156 
03:05	22.5	22.5	22.5	87	19.2	0	0	---	0.00	30.157 
03:10	22.5	22.5	22.5	87	19.2	0	0	---	0.00	30.156 
03:15	22.5	22.5	22.5	88	19.5	0	0	---	0.00	30.148 
03:20	22.7	22.7	22.7	88	19.7	0	0	---	0.00	30.148 
03:25	22.9	22.9	22.9	88	19.9	0	0	---	0.00	30.146 
03:30	22.9	22.9	22.9	88	19.9	0	1	112	0.00	30.144 
03:35	22.9	22.9	22.9	89	20.2	0	0	---	0.00	30.144 
03:40	23.0	23.0	23.0	89	20.3	0	1	112	0.00	30.142 
03:45	23.3	23.3	23.3	89	20.5	0	1	112	0.00	30.137 
03:50	23.6	23.6	23.6	88	20.6	0	1	112	0.00	30.137 
03:55	23.6	23.6	23.6	88	20.6	0	0	---	0.00	30.140 
04:00	23.3	23.3	23.3	88	20.3	0	0	---	0.00	30.141 
04:05	23.2	23.2	23.2	88	20.2	0	0	---	0.00	30.142 
04:10	23.0	23.0	23.0	88	20.0	0	0	---	0.00	30.144 
04:15	22.9	22.9	22.9	88	19.9	0	0	---	0.00	30.143 
04:20	22.9	22.9	22.9	88	19.9	0	1	112	0.00	30.140 
04:25	22.7	22.7	22.7	88	19.7	0	0	---	0.00	30.138 
04:30	22.5	22.5	22.5	88	19.5	0	0	---	0.00	30.138 
04:35	22.4	22.4	22.4	88	19.4	0	0	---	0.00	30.137 
04:40	22.2	22.2	22.2	88	19.2	0	1	112	0.00	30.142 
04:45	22.2	22.2	22.2	88	19.2	0	0	---	0.00	30.146 
04:50	22.2	22.2	22.2	89	19.5	0	0	---	0.00	30.147 
04:55	22.1	22.1	22.1	89	19.4	0	0	---	0.00	30.152 
05:00	22.1	22.1	22.1	89	19.4	0	1	112	0.00	30.146 
05:05	22.4	22.4	22.4	89	19.7	0	1	112	0.00	30.142 
05:10	22.7	22.7	22.7	89	20.0	1	2	112	0.00	30.136 
05:15	23.0	23.0	23.0	89	20.3	1	2	112	0.00	30.131 
05:20	23.0	23.0	23.0	89	20.3	0	2	112	0.00	30.132 
05:25	23.2	23.2	23.2	88	20.2	0	2	112	0.00	30.140 
05:30	23.2	23.2	23.2	88	20.2	0	1	112	0.00	30.133 
05:35	23.2	23.2	23.2	88	20.2	0	2	112	0.00	30.132 
05:40	23.2	23.2	23.2	88	20.2	0	2	112	0.00	30.138 
05:45	23.0	23.0	23.0	88	20.0	0	2	112	0.00	30.138 
05:50	23.0	23.0	23.0	88	20.0	1	3	112	0.00	30.138 
05:55	23.2	23.2	23.2	87	19.9	1	3	90	0.00	30.132 
06:00	23.0	23.0	23.0	87	19.7	1	3	90	0.00	30.131 
06:05	22.9	22.9	22.9	87	19.6	1	2	90	0.00	30.132 
06:10	22.9	22.9	22.9	87	19.6	0	2	90	0.00	30.132 
06:15	22.9	22.9	22.9	87	19.6	1	3	90	0.00	30.136 
06:20	22.7	22.7	22.7	88	19.7	0	2	90	0.00	30.134 
06:25	22.5	22.5	22.5	87	19.2	0	1	90	0.00	30.136 
06:30	22.4	22.4	22.4	87	19.1	0	1	90	0.00	30.141 
06:35	22.2	22.2	22.2	88	19.2	0	1	90	0.00	30.140 
06:40	22.1	22.1	22.1	87	18.8	0	2	90	0.00	30.142 
06:45	22.1	22.1	22.1	88	19.1	0	2	90	0.00	30.143 
06:50	22.1	22.1	22.1	88	19.1	0	1	90	0.00	30.145 
06:55	21.9	21.9	21.9	88	18.9	0	1	90	0.00	30.148 
07:00	21.9	21.9	21.9	88	18.9	0	0	---	0.00	30.152 
07:05	21.8	21.8	21.8	88	18.8	0	1	90	0.00	30.152 
07:10	21.8	21.8	21.8	88	18.8	1	2	90	0.00	30.146 
07:15	21.9	21.9	21.9	88	18.9	0	1	90	0.00	30.151 
07:20	21.9	21.9	21.9	88	18.9	1	2	90	0.00	30.149 
07:25	22.2	22.2	22.2	88	19.2	0	2	90	0.00	30.146 
07:30	22.5	22.5	22.5	88	19.5	0	2	90	0.00	30.145 
07:35	23.0	23.0	23.0	87	19.7	0	2	90	0.00	30.143 
07:40	23.3	23.3	23.3	86	19.7	0	1	90	0.00	30.147 
07:45	23.6	23.6	23.6	85	19.8	0	2	90	0.00	30.145 
07:50	24.1	24.1	24.1	84	20.0	2	4	90	0.00	30.142 
07:55	24.4	24.4	24.4	84	20.3	2	4	112	0.00	30.137 
08:00	24.5	24.5	24.5	84	20.4	1	3	112	0.00	30.138 
08:05	24.8	24.8	24.8	83	20.4	1	3	112	0.00	30.140 
08:10	25.1	25.1	25.1	83	20.7	2	4	112	0.00	30.141 
08:15	25.7	25.7	25.7	82	21.0	2	4	112	0.00	30.136 
08:20	26.3	26.3	26.3	81	21.3	1	5	90	0.00	30.138 
08:25	26.7	26.7	26.7	80	21.4	1	3	90	0.00	30.139 
08:30	27.2	27.2	27.2	79	21.6	1	3	112	0.00	30.141 
08:35	27.6	27.6	27.6	77	21.4	2	4	112	0.00	30.142 
08:40	27.8	27.8	27.8	77	21.5	2	5	112	0.00	30.141 
08:45	28.1	28.1	28.1	77	21.8	2	4	90	0.00	30.141 
08:50	28.4	28.4	28.4	76	21.8	2	5	112	0.00	30.140 
08:55	28.5	28.5	28.5	76	21.9	3	5	90	0.00	30.138 
09:00	28.8	28.8	28.8	76	22.2	3	5	112	0.00	30.142 
09:05	29.3	29.3	29.3	76	22.7	2	4	90	0.00	30.141 
09:10	30.1	30.1	30.1	75	23.2	2	4	90	0.00	30.141 
09:15	30.6	30.6	30.6	74	23.3	2	5	90	0.00	30.131 
09:20	31.0	31.0	31.0	72	23.1	3	5	112	0.00	30.132 
09:25	31.3	31.3	31.3	71	23.0	3	5	112	0.00	30.132 
09:30	31.8	31.8	31.8	71	23.5	3	5	90	0.00	30.133 
09:35	32.2	32.2	32.2	71	23.9	3	6	90	0.00	30.132 
09:40	32.9	32.9	32.9	70	24.2	2	4	112	0.00	30.129 
09:45	33.5	33.5	33.5	67	23.7	3	6	112	0.00	30.126 
09:50	34.0	34.0	34.0	66	23.9	3	6	90	0.00	30.125 
09:55	34.6	34.6	34.6	67	24.8	2	5	90	0.00	30.124 
10:00	35.2	35.2	35.2	65	24.6	3	7	112	0.00	30.117 
10:05	35.5	35.5	35.5	65	24.9	3	6	112	0.00	30.118 
10:10	36.5	36.5	36.5	62	24.7	2	6	112	0.00	30.117 
10:15	36.8	36.8	36.8	64	25.8	2	5	112	0.00	30.111 
10:20	37.3	37.3	37.3	62	25.5	2	5	90	0.00	30.112 
10:25	38.0	38.0	38.0	61	25.8	1	3	90	0.00	30.110 
10:30	38.8	38.8	38.8	61	26.5	3	7	90	0.00	30.107 
10:35	38.9	38.9	38.9	60	26.2	2	5	112	0.00	30.108 
10:40	39.2	39.2	39.2	59	26.1	2	3	158	0.00	30.108 
10:45	39.6	39.6	39.6	60	26.9	2	5	90	0.00	30.106 
10:50	39.9	39.9	39.9	59	26.7	2	6	135	0.00	30.105 
10:55	40.2	40.2	40.2	58	26.6	2	5	90	0.00	30.104 
11:00	40.8	40.8	40.8	58	27.2	2	5	112	0.00	30.100 
11:05	41.1	41.1	41.1	56	26.6	2	6	112	0.00	30.101 
11:10	41.6	41.6	41.6	56	27.1	2	5	112	0.00	30.098 
11:15	41.9	41.9	41.9	57	27.8	2	5	135	0.00	30.092 
11:20	42.3	42.3	42.3	56	27.7	1	3	68	0.00	30.092 
11:25	42.8	42.8	42.8	55	27.8	2	5	112	0.00	30.089 
11:30	42.9	42.9	42.9	55	27.9	2	5	112	0.00	30.087 
11:35	43.2	43.2	43.2	56	28.6	2	4	135	0.00	30.087 
11:40	43.3	43.3	43.3	55	28.2	3	5	112	0.00	30.085 
11:45	44.1	44.1	44.1	54	28.5	2	5	112	0.00	30.076 
11:50	44.5	44.5	44.5	56	29.8	2	6	112	0.00	30.075 
11:55	44.6	44.6	44.6	54	29.0	2	6	112	0.00	30.074 
12:00	44.9	44.9	44.9	53	28.8	1	5	90	0.00	30.071 
12:05	45.2	45.2	45.2	53	29.1	3	7	90	0.00	30.070 
12:10	45.7	45.7	45.7	54	30.0	2	5	90	0.00	30.069 
12:15	46.1	46.1	46.1	52	29.5	2	7	112	0.00	30.068 
12:20	46.2	46.2	46.2	51	29.1	2	5	112	0.00	30.067 
12:25	46.7	46.7	46.7	52	30.0	2	5	112	0.00	30.065 
12:30	47.3	47.3	47.3	50	29.6	1	4	135	0.00	30.057 
12:35	47.4	47.4	47.4	52	30.7	3	9	112	0.00	30.055 
12:40	47.4	47.4	47.4	50	29.7	2	6	112	0.00	30.054 
12:45	47.6	47.6	47.6	52	30.9	2	4	112	0.00	30.053 
12:50	48.2	48.2	48.2	50	30.4	1	4	135	0.00	30.053 
12:55	48.8	48.8	48.8	49	30.5	2	4	112	0.00	30.052 
13:00	49.2	49.2	49.2	48	30.4	2	4	135	0.00	30.049 
13:05	49.5	49.5	49.5	51	32.1	1	3	112	0.00	30.051 
13:10	50.1	50.1	50.1	48	31.2	1	4	112	0.00	30.050 
13:15	50.4	50.4	50.4	47	30.9	2	5	112	0.00	30.042 
13:20	50.7	50.7	50.7	46	30.7	2	4	112	0.00	30.038 
13:25	51.0	51.0	51.0	44	29.9	2	5	112	0.00	30.035 
13:30	51.1	51.1	51.1	46	31.0	2	5	112	0.00	30.029 
13:35	51.1	51.1	51.1	44	30.0	2	4	112	0.00	30.025 
13:40	51.6	51.6	51.6	45	31.0	1	4	112	0.00	30.024 
13:45	52.0	52.0	52.0	44	30.8	1	3	135	0.00	30.019 
13:50	52.2	52.2	52.2	43	30.4	2	5	112	0.00	30.018 
13:55	52.5	52.5	52.5	43	30.7	1	3	112	0.00	30.015 
14:00	52.9	52.9	52.9	44	31.6	1	3	112	0.00	30.003 
14:05	53.1	53.1	53.1	43	31.2	2	4	112	0.00	30.005 
14:10	53.2	53.2	53.2	43	31.3	2	4	112	0.00	30.004 
14:15	53.5	53.5	53.5	42	31.0	1	3	135	0.00	30.002 
14:20	53.6	53.6	53.6	43	31.7	2	4	135	0.00	30.002 
14:25	53.5	53.5	53.5	43	31.6	2	5	90	0.00	30.001 
14:30	53.6	53.6	53.6	44	32.2	1	4	112	0.00	29.999 
14:35	53.9	53.9	53.9	44	32.5	2	5	90	0.00	29.998 
14:40	54.1	54.1	54.1	43	32.1	1	4	112	0.00	29.992 
14:45	54.1	54.1	54.1	45	33.2	2	3	112	0.00	29.987 
14:50	54.5	54.5	54.5	43	32.5	3	5	112	0.00	29.986 
14:55	54.5	54.5	54.5	43	32.5	2	9	90	0.00	29.983 
15:00	54.8	54.8	54.8	42	32.2	2	4	135	0.00	29.983 
15:05	55.0	55.0	55.0	42	32.3	1	3	135	0.00	29.979 
15:10	55.1	55.1	55.1	42	32.4	2	6	112	0.00	29.979 
15:15	55.1	55.1	55.1	41	31.8	2	6	112	0.00	29.977 
15:20	55.3	55.3	55.3	42	32.6	1	4	112	0.00	29.976 
15:25	55.6	55.6	55.6	43	33.5	2	5	90	0.00	29.977 
15:30	55.7	55.7	55.7	41	32.4	2	4	90	0.00	29.974 
15:35	55.7	55.7	55.7	43	33.6	1	3	112	0.00	29.974 
15:40	56.0	56.0	56.0	42	33.2	1	4	112	0.00	29.975 
15:45	56.2	56.2	56.2	42	33.4	1	2	112	0.00	29.974 
15:50	56.5	56.5	56.5	42	33.7	1	3	112	0.00	29.972 
15:55	56.7	56.7	56.7	42	33.9	1	4	112	0.00	29.970 
16:00	56.9	56.9	56.9	42	34.0	1	5	112	0.00	29.969 
16:05	56.9	56.9	56.9	42	34.0	2	7	112	0.00	29.970 
16:10	57.0	57.0	57.0	42	34.1	1	4	112	0.00	29.968 
16:15	56.9	56.9	56.9	43	34.6	1	4	135	0.00	29.966 
16:20	56.9	56.9	56.9	43	34.6	1	3	112	0.00	29.965 
16:25	56.9	56.9	56.9	43	34.6	2	4	112	0.00	29.961 
16:30	56.7	56.7	56.7	42	33.9	2	4	112	0.00	29.958 
16:35	56.7	56.7	56.7	43	34.5	1	4	112	0.00	29.959 
16:40	56.6	56.6	56.6	43	34.4	1	4	135	0.00	29.958 
16:45	56.6	56.6	56.6	44	34.9	1	4	112	0.00	29.956 
16:50	56.5	56.5	56.5	44	34.9	1	4	112	0.00	29.954 
16:55	56.5	56.5	56.5	45	35.4	1	3	135	0.00	29.953 
17:00	56.3	56.3	56.3	45	35.2	1	3	135	0.00	29.953 
17:05	56.3	56.3	56.3	46	35.8	1	2	135	0.00	29.952 
17:10	56.3	56.3	56.3	47	36.3	0	2	135	0.00	29.952 
17:15	56.2	56.2	56.2	48	36.8	0	2	135	0.00	29.952 
17:20	56.0	56.0	56.0	48	36.6	0	2	135	0.00	29.951 
17:25	56.0	56.0	56.0	48	36.6	0	2	135	0.00	29.952 
17:30	55.9	55.9	55.9	48	36.5	0	2	135	0.00	29.953 
17:35	55.9	55.9	55.9	49	37.0	1	2	135	0.00	29.954 
17:40	55.7	55.7	55.7	49	36.8	0	1	135	0.00	29.953 
17:45	55.6	55.6	55.6	50	37.3	0	1	135	0.00	29.954 
17:50	55.3	55.3	55.3	50	37.0	0	1	135	0.00	29.954 
17:55	55.1	55.1	55.1	51	37.3	0	1	135	0.00	29.953 
18:00	54.8	54.8	54.8	51	37.0	0	1	135	0.00	29.954 
18:05	54.5	54.5	54.5	52	37.2	0	1	135	0.00	29.956 
18:10	54.1	54.1	54.1	52	36.9	0	1	135	0.00	29.955 
18:15	53.6	53.6	53.6	54	37.4	0	1	135	0.00	29.954 
18:20	53.1	53.1	53.1	54	36.9	0	1	135	0.00	29.955 
18:25	52.6	52.6	52.6	55	36.9	0	1	135	0.00	29.955 
18:30	52.3	52.3	52.3	56	37.1	0	1	135	0.00	29.955 
18:35	52.0	52.0	52.0	56	36.8	0	1	135	0.00	29.954 
18:40	51.9	51.9	51.9	57	37.1	0	1	135	0.00	29.955 
18:45	51.7	51.7	51.7	57	37.0	0	1	135	0.00	29.955 
18:50	51.6	51.6	51.6	57	36.9	0	1	135	0.00	29.954 
18:55	51.4	51.4	51.4	58	37.1	0	1	135	0.00	29.953 
19:00	51.3	51.3	51.3	58	37.0	0	1	135	0.00	29.954 
19:05	51.0	51.0	51.0	58	36.7	0	1	135	0.00	29.949 
19:10	50.7	50.7	50.7	59	36.9	0	0	---	0.00	29.944 
19:15	50.4	50.4	50.4	59	36.6	0	0	---	0.00	29.946 
19:20	50.2	50.2	50.2	60	36.9	0	0	---	0.00	29.947 
19:25	50.1	50.1	50.1	61	37.2	0	1	135	0.00	29.942 
19:30	49.9	49.9	49.9	61	37.0	0	1	135	0.00	29.940 
19:35	49.6	49.6	49.6	61	36.7	0	1	135	0.00	29.940 
19:40	49.5	49.5	49.5	62	37.0	0	1	135	0.00	29.940 
19:45	49.4	49.4	49.4	62	36.9	0	1	135	0.00	29.940 
19:50	49.4	49.4	49.4	62	36.9	0	1	135	0.00	29.940 
19:55	49.2	49.2	49.2	62	36.7	0	1	135	0.00	29.939 
20:00	49.1	49.1	49.1	62	36.6	0	1	135	0.00	29.937 
20:05	49.1	49.1	49.1	62	36.6	0	1	135	0.00	29.933 
20:10	48.9	48.9	48.9	63	36.9	0	0	---	0.00	29.931 
20:15	48.6	48.6	48.6	64	37.0	0	1	135	0.00	29.926 
20:20	48.5	48.5	48.5	64	36.9	0	1	135	0.00	29.923 
20:25	48.3	48.3	48.3	64	36.7	0	1	135	0.00	29.923 
20:30	48.0	48.0	48.0	64	36.4	0	0	---	0.00	29.923 
20:35	47.7	47.7	47.7	65	36.5	0	0	---	0.00	29.923 
20:40	47.4	47.4	47.4	65	36.2	0	0	---	0.00	29.923 
20:45	47.1	47.1	47.1	66	36.3	0	0	---	0.00	29.924 
20:50	46.7	46.7	46.7	68	36.7	0	0	---	0.00	29.923 
20:55	46.5	46.5	46.5	68	36.5	0	1	135	0.00	29.922 
21:00	46.4	46.4	46.4	68	36.4	0	0	---	0.00	29.923 
21:05	46.1	46.1	46.1	68	36.1	0	0	---	0.00	29.918 
21:10	46.0	46.0	46.0	69	36.4	0	0	---	0.00	29.915 
21:15	45.7	45.7	45.7	69	36.1	0	0	---	0.00	29.915 
21:20	45.5	45.5	45.5	70	36.3	0	0	---	0.00	29.915 
21:25	45.4	45.4	45.4	71	36.6	0	0	---	0.00	29.912 
21:30	45.4	45.4	45.4	71	36.6	0	0	---	0.00	29.908 
21:35	45.2	45.2	45.2	71	36.4	0	0	---	0.00	29.907 
21:40	45.2	45.2	45.2	71	36.4	0	0	---	0.00	29.905 
21:45	45.2	45.2	45.2	72	36.7	0	0	---	0.00	29.904 
21:50	45.2	45.2	45.2	72	36.7	0	0	---	0.00	29.903 
21:55	45.5	45.5	45.5	71	36.7	0	1	135	0.00	29.901 
22:00	46.2	46.2	46.2	69	36.6	0	1	135	0.00	29.901 
22:05	47.3	47.3	47.3	68	37.3	0	2	135	0.00	29.894 
22:10	48.3	48.3	48.3	66	37.5	0	2	135	0.00	29.892 
22:15	48.9	48.9	48.9	65	37.7	0	0	---	0.00	29.889 
22:20	49.2	49.2	49.2	65	37.9	0	1	135	0.00	29.886 
22:25	49.5	49.5	49.5	65	38.2	0	1	135	0.00	29.885 
22:30	49.8	49.8	49.8	64	38.1	0	2	135	0.00	29.883 
22:35	50.1	50.1	50.1	64	38.4	0	2	158	0.00	29.881 
22:40	50.2	50.2	50.2	64	38.5	0	2	135	0.00	29.880 
22:45	50.4	50.4	50.4	64	38.7	1	5	90	0.00	29.879 
22:50	50.5	50.5	50.5	64	38.8	0	1	90	0.00	29.879 
22:55	50.4	50.4	50.4	64	38.7	0	2	90	0.00	29.877 
23:00	50.4	50.4	50.4	65	39.1	0	2	112	0.00	29.878 
23:05	50.5	50.5	50.5	65	39.2	0	1	112	0.00	29.873 
23:10	50.7	50.7	50.7	65	39.4	1	4	112	0.00	29.872 
23:15	50.8	50.8	50.8	64	39.1	1	2	225	0.00	29.871 
23:20	51.1	51.1	51.1	64	39.4	1	4	248	0.00	29.871 
23:25	51.4	51.4	51.4	63	39.2	1	5	248	0.00	29.871 
23:30	51.4	51.4	51.4	64	39.6	0	3	248	0.00	29.870 
23:35	51.4	51.4	51.4	64	39.6	0	2	248	0.00	29.869 
23:40	51.3	51.3	51.3	64	39.5	0	2	248	0.00	29.865 
23:45	51.3	51.3	51.3	64	39.5	0	2	248	0.00	29.863 
23:50	51.4	51.4	51.4	64	39.6	1	4	248	0.00	29.866 
23:55	51.9	51.9	51.9	64	40.1	2	4	248	0.00	29.868 

CoCoRaHS
IN-AL-39
A2 Web Hosting
Creative Commons License
GoDaddy
Look for:

loaded 2017-10-17 00:37:36 • last modified 2010-11-18 10:43:29
Privacy PolicyDisclaimer
• wx.awcolley.com is powered by PmWiki v.2002016 •
• all content (unless otherwise noted) © 2017 A W Colley